sensor_id;sensor_type;location;lat;lon;timestamp;P1;durP1;ratioP1;P2;durP2;ratioP2
49378;SDS011;35254;47.990;-1.608;2023-03-01T00:01:47;2.38;;;2.03;;
49378;SDS011;35254;47.990;-1.608;2023-03-01T00:04:13;2.63;;;2.00;;
49378;SDS011;35254;47.990;-1.608;2023-03-01T00:06:39;3.47;;;2.40;;
49378;SDS011;35254;47.990;-1.608;2023-03-01T00:09:06;2.90;;;2.03;;
49378;SDS011;35254;47.990;-1.608;2023-03-01T00:11:32;4.90;;;2.22;;
49378;SDS011;35254;47.990;-1.608;2023-03-01T00:14:01;2.10;;;2.00;;
49378;SDS011;35254;47.990;-1.608;2023-03-01T00:16:31;2.63;;;2.42;;
49378;SDS011;35254;47.990;-1.608;2023-03-01T00:19:03;2.20;;;2.10;;
49378;SDS011;35254;47.990;-1.608;2023-03-01T00:21:29;2.42;;;2.22;;
49378;SDS011;35254;47.990;-1.608;2023-03-01T00:23:55;2.60;;;2.20;;
49378;SDS011;35254;47.990;-1.608;2023-03-01T00:26:22;2.15;;;1.95;;
49378;SDS011;35254;47.990;-1.608;2023-03-01T00:28:49;2.20;;;2.10;;
49378;SDS011;35254;47.990;-1.608;2023-03-01T00:31:16;2.28;;;2.08;;
49378;SDS011;35254;47.990;-1.608;2023-03-01T00:33:57;2.63;;;2.42;;
49378;SDS011;35254;47.990;-1.608;2023-03-01T00:36:25;1.95;;;1.77;;
49378;SDS011;35254;47.990;-1.608;2023-03-01T00:38:52;2.30;;;2.10;;
49378;SDS011;35254;47.990;-1.608;2023-03-01T00:41:18;2.20;;;2.00;;
49378;SDS011;35254;47.990;-1.608;2023-03-01T00:43:45;2.75;;;2.55;;
49378;SDS011;35254;47.990;-1.608;2023-03-01T00:46:15;3.15;;;2.35;;
49378;SDS011;35254;47.990;-1.608;2023-03-01T00:48:43;2.53;;;2.30;;
49378;SDS011;35254;47.990;-1.608;2023-03-01T00:53:52;2.45;;;2.25;;
49378;SDS011;35254;47.990;-1.608;2023-03-01T00:56:19;2.08;;;1.98;;
49378;SDS011;35254;47.990;-1.608;2023-03-01T00:58:45;3.10;;;2.40;;
49378;SDS011;35254;47.990;-1.608;2023-03-01T01:01:15;4.00;;;2.60;;
49378;SDS011;35254;47.990;-1.608;2023-03-01T01:03:46;2.33;;;2.13;;
49378;SDS011;35254;47.990;-1.608;2023-03-01T01:06:18;4.80;;;2.60;;
49378;SDS011;35254;47.990;-1.608;2023-03-01T01:08:55;3.38;;;2.17;;
49378;SDS011;35254;47.990;-1.608;2023-03-01T01:11:22;2.58;;;2.35;;
49378;SDS011;35254;47.990;-1.608;2023-03-01T01:13:50;4.80;;;3.42;;
49378;SDS011;35254;47.990;-1.608;2023-03-01T01:16:17;2.60;;;2.40;;
49378;SDS011;35254;47.990;-1.608;2023-03-01T01:18:44;2.60;;;2.30;;
49378;SDS011;35254;47.990;-1.608;2023-03-01T01:21:11;3.50;;;2.55;;
49378;SDS011;35254;47.990;-1.608;2023-03-01T01:23:39;5.75;;;2.28;;
49378;SDS011;35254;47.990;-1.608;2023-03-01T01:26:10;2.33;;;2.20;;
49378;SDS011;35254;47.990;-1.608;2023-03-01T01:28:38;3.38;;;2.40;;
49378;SDS011;35254;47.990;-1.608;2023-03-01T01:31:04;2.40;;;2.20;;
49378;SDS011;35254;47.990;-1.608;2023-03-01T01:33:30;2.60;;;2.40;;
49378;SDS011;35254;47.990;-1.608;2023-03-01T01:35:56;1.80;;;1.70;;
49378;SDS011;35254;47.990;-1.608;2023-03-01T01:38:22;2.10;;;2.00;;
49378;SDS011;35254;47.990;-1.608;2023-03-01T01:40:48;5.07;;;2.35;;
49378;SDS011;35254;47.990;-1.608;2023-03-01T01:43:25;2.63;;;2.38;;
49378;SDS011;35254;47.990;-1.608;2023-03-01T01:46:04;2.83;;;2.63;;
49378;SDS011;35254;47.990;-1.608;2023-03-01T01:48:49;2.40;;;2.20;;
49378;SDS011;35254;47.990;-1.608;2023-03-01T01:51:23;2.70;;;2.50;;
49378;SDS011;35254;47.990;-1.608;2023-03-01T01:53:55;2.50;;;2.30;;
49378;SDS011;35254;47.990;-1.608;2023-03-01T01:56:24;3.33;;;2.53;;
49378;SDS011;35254;47.990;-1.608;2023-03-01T01:58:51;2.72;;;2.42;;
49378;SDS011;35254;47.990;-1.608;2023-03-01T02:01:18;2.25;;;2.05;;
49378;SDS011;35254;47.990;-1.608;2023-03-01T02:03:45;2.92;;;2.63;;
49378;SDS011;35254;47.990;-1.608;2023-03-01T02:06:15;3.60;;;2.83;;
49378;SDS011;35254;47.990;-1.608;2023-03-01T02:08:43;2.50;;;2.30;;
49378;SDS011;35254;47.990;-1.608;2023-03-01T02:11:12;2.63;;;2.40;;
49378;SDS011;35254;47.990;-1.608;2023-03-01T02:13:40;2.58;;;2.30;;
49378;SDS011;35254;47.990;-1.608;2023-03-01T02:16:08;4.82;;;2.55;;
49378;SDS011;35254;47.990;-1.608;2023-03-01T02:18:36;2.35;;;2.15;;
49378;SDS011;35254;47.990;-1.608;2023-03-01T02:23:58;2.28;;;2.08;;
49378;SDS011;35254;47.990;-1.608;2023-03-01T02:29:07;2.20;;;2.00;;
49378;SDS011;35254;47.990;-1.608;2023-03-01T02:31:33;2.85;;;2.38;;
49378;SDS011;35254;47.990;-1.608;2023-03-01T02:34:12;2.45;;;2.20;;
49378;SDS011;35254;47.990;-1.608;2023-03-01T02:36:53;3.92;;;2.00;;
49378;SDS011;35254;47.990;-1.608;2023-03-01T02:39:26;2.28;;;2.10;;
49378;SDS011;35254;47.990;-1.608;2023-03-01T02:41:56;5.47;;;2.50;;
49378;SDS011;35254;47.990;-1.608;2023-03-01T02:44:22;2.85;;;2.13;;
49378;SDS011;35254;47.990;-1.608;2023-03-01T02:46:49;2.85;;;2.60;;
49378;SDS011;35254;47.990;-1.608;2023-03-01T02:54:56;2.67;;;2.47;;
49378;SDS011;35254;47.990;-1.608;2023-03-01T02:57:24;2.17;;;1.98;;
49378;SDS011;35254;47.990;-1.608;2023-03-01T02:59:52;3.08;;;2.40;;
49378;SDS011;35254;47.990;-1.608;2023-03-01T03:02:21;2.47;;;2.28;;
49378;SDS011;35254;47.990;-1.608;2023-03-01T03:05:05;3.22;;;2.92;;
49378;SDS011;35254;47.990;-1.608;2023-03-01T03:07:34;2.15;;;1.92;;
49378;SDS011;35254;47.990;-1.608;2023-03-01T03:10:01;2.20;;;2.00;;
49378;SDS011;35254;47.990;-1.608;2023-03-01T03:12:28;2.58;;;2.38;;
49378;SDS011;35254;47.990;-1.608;2023-03-01T03:14:54;2.47;;;2.28;;
49378;SDS011;35254;47.990;-1.608;2023-03-01T03:17:20;2.65;;;2.45;;
49378;SDS011;35254;47.990;-1.608;2023-03-01T03:19:45;2.72;;;2.15;;
49378;SDS011;35254;47.990;-1.608;2023-03-01T03:22:11;2.40;;;2.20;;
49378;SDS011;35254;47.990;-1.608;2023-03-01T03:24:37;5.15;;;2.00;;
49378;SDS011;35254;47.990;-1.608;2023-03-01T03:27:06;3.05;;;1.88;;
49378;SDS011;35254;47.990;-1.608;2023-03-01T03:29:32;2.53;;;2.33;;
49378;SDS011;35254;47.990;-1.608;2023-03-01T03:31:58;2.90;;;2.20;;
49378;SDS011;35254;47.990;-1.608;2023-03-01T03:34:24;2.20;;;1.95;;
49378;SDS011;35254;47.990;-1.608;2023-03-01T03:36:56;2.40;;;2.20;;
49378;SDS011;35254;47.990;-1.608;2023-03-01T03:39:24;2.55;;;2.28;;
49378;SDS011;35254;47.990;-1.608;2023-03-01T03:41:50;4.20;;;1.90;;
49378;SDS011;35254;47.990;-1.608;2023-03-01T03:44:16;2.83;;;1.83;;
49378;SDS011;35254;47.990;-1.608;2023-03-01T03:46:41;2.63;;;2.00;;
49378;SDS011;35254;47.990;-1.608;2023-03-01T03:49:07;2.42;;;2.28;;
49378;SDS011;35254;47.990;-1.608;2023-03-01T03:51:33;2.83;;;2.45;;
49378;SDS011;35254;47.990;-1.608;2023-03-01T03:53:58;2.40;;;2.20;;
49378;SDS011;35254;47.990;-1.608;2023-03-01T03:56:24;3.15;;;2.55;;
49378;SDS011;35254;47.990;-1.608;2023-03-01T03:58:50;2.35;;;2.20;;
49378;SDS011;35254;47.990;-1.608;2023-03-01T04:01:17;1.90;;;1.80;;
49378;SDS011;35254;47.990;-1.608;2023-03-01T04:03:42;1.85;;;1.75;;
49378;SDS011;35254;47.990;-1.608;2023-03-01T04:06:11;2.30;;;2.10;;
49378;SDS011;35254;47.990;-1.608;2023-03-01T04:08:38;2.47;;;1.88;;
49378;SDS011;35254;47.990;-1.608;2023-03-01T04:11:04;2.88;;;2.67;;
49378;SDS011;35254;47.990;-1.608;2023-03-01T04:13:48;1.95;;;1.83;;
49378;SDS011;35254;47.990;-1.608;2023-03-01T04:16:15;4.35;;;2.85;;
49378;SDS011;35254;47.990;-1.608;2023-03-01T04:18:41;2.58;;;2.38;;
49378;SDS011;35254;47.990;-1.608;2023-03-01T04:21:06;3.30;;;2.45;;
49378;SDS011;35254;47.990;-1.608;2023-03-01T04:23:32;2.60;;;1.77;;
49378;SDS011;35254;47.990;-1.608;2023-03-01T04:25:58;2.63;;;2.40;;
49378;SDS011;35254;47.990;-1.608;2023-03-01T04:28:26;2.55;;;2.35;;
49378;SDS011;35254;47.990;-1.608;2023-03-01T04:30:52;2.20;;;2.00;;
49378;SDS011;35254;47.990;-1.608;2023-03-01T04:33:19;1.77;;;1.67;;
49378;SDS011;35254;47.990;-1.608;2023-03-01T04:35:45;2.30;;;2.10;;
49378;SDS011;35254;47.990;-1.608;2023-03-01T04:38:14;2.63;;;2.42;;
49378;SDS011;35254;47.990;-1.608;2023-03-01T04:40:41;2.47;;;2.28;;
49378;SDS011;35254;47.990;-1.608;2023-03-01T04:43:08;2.38;;;2.17;;
49378;SDS011;35254;47.990;-1.608;2023-03-01T04:45:34;3.75;;;2.20;;
49378;SDS011;35254;47.990;-1.608;2023-03-01T04:48:00;1.92;;;1.83;;
49378;SDS011;35254;47.990;-1.608;2023-03-01T04:50:26;3.15;;;2.28;;
49378;SDS011;35254;47.990;-1.608;2023-03-01T04:52:52;2.47;;;2.05;;
49378;SDS011;35254;47.990;-1.608;2023-03-01T04:55:18;2.72;;;2.45;;
49378;SDS011;35254;47.990;-1.608;2023-03-01T04:57:44;2.97;;;2.20;;
49378;SDS011;35254;47.990;-1.608;2023-03-01T05:00:10;2.20;;;2.05;;
49378;SDS011;35254;47.990;-1.608;2023-03-01T05:02:50;2.30;;;2.17;;
49378;SDS011;35254;47.990;-1.608;2023-03-01T05:05:18;2.58;;;2.38;;
49378;SDS011;35254;47.990;-1.608;2023-03-01T05:07:57;2.38;;;2.00;;
49378;SDS011;35254;47.990;-1.608;2023-03-01T05:10:24;2.28;;;2.13;;
49378;SDS011;35254;47.990;-1.608;2023-03-01T05:12:51;3.80;;;2.63;;
49378;SDS011;35254;47.990;-1.608;2023-03-01T05:15:19;4.47;;;2.47;;
49378;SDS011;35254;47.990;-1.608;2023-03-01T05:17:50;2.00;;;1.90;;
49378;SDS011;35254;47.990;-1.608;2023-03-01T05:20:17;2.67;;;2.05;;
49378;SDS011;35254;47.990;-1.608;2023-03-01T05:25:13;4.57;;;2.53;;
49378;SDS011;35254;47.990;-1.608;2023-03-01T05:27:39;2.75;;;2.20;;
49378;SDS011;35254;47.990;-1.608;2023-03-01T05:30:04;3.40;;;2.75;;
49378;SDS011;35254;47.990;-1.608;2023-03-01T05:32:39;2.88;;;2.67;;
49378;SDS011;35254;47.990;-1.608;2023-03-01T05:35:06;2.60;;;2.40;;
49378;SDS011;35254;47.990;-1.608;2023-03-01T05:37:31;2.90;;;2.42;;
49378;SDS011;35254;47.990;-1.608;2023-03-01T05:39:57;2.70;;;2.15;;
49378;SDS011;35254;47.990;-1.608;2023-03-01T05:42:23;3.55;;;2.05;;
49378;SDS011;35254;47.990;-1.608;2023-03-01T05:44:48;4.90;;;2.78;;
49378;SDS011;35254;47.990;-1.608;2023-03-01T05:47:14;2.83;;;2.63;;
49378;SDS011;35254;47.990;-1.608;2023-03-01T05:49:39;2.67;;;2.47;;
49378;SDS011;35254;47.990;-1.608;2023-03-01T05:52:05;5.55;;;2.92;;
49378;SDS011;35254;47.990;-1.608;2023-03-01T05:54:31;2.92;;;2.72;;
49378;SDS011;35254;47.990;-1.608;2023-03-01T05:56:56;3.53;;;3.00;;
49378;SDS011;35254;47.990;-1.608;2023-03-01T05:59:22;3.28;;;2.95;;
49378;SDS011;35254;47.990;-1.608;2023-03-01T06:01:48;3.88;;;3.08;;
49378;SDS011;35254;47.990;-1.608;2023-03-01T06:04:13;4.30;;;3.90;;
49378;SDS011;35254;47.990;-1.608;2023-03-01T06:06:39;3.80;;;3.30;;
49378;SDS011;35254;47.990;-1.608;2023-03-01T06:09:05;3.25;;;2.92;;
49378;SDS011;35254;47.990;-1.608;2023-03-01T06:11:33;4.10;;;2.83;;
49378;SDS011;35254;47.990;-1.608;2023-03-01T06:13:59;6.10;;;2.97;;
49378;SDS011;35254;47.990;-1.608;2023-03-01T06:16:25;5.65;;;3.38;;
49378;SDS011;35254;47.990;-1.608;2023-03-01T06:18:50;4.32;;;2.97;;
49378;SDS011;35254;47.990;-1.608;2023-03-01T06:21:16;5.13;;;2.63;;
49378;SDS011;35254;47.990;-1.608;2023-03-01T06:23:41;3.28;;;2.85;;
49378;SDS011;35254;47.990;-1.608;2023-03-01T06:26:07;2.70;;;2.50;;
49378;SDS011;35254;47.990;-1.608;2023-03-01T06:28:34;5.68;;;2.55;;
49378;SDS011;35254;47.990;-1.608;2023-03-01T06:31:00;3.47;;;2.72;;
49378;SDS011;35254;47.990;-1.608;2023-03-01T06:33:26;3.35;;;2.60;;
49378;SDS011;35254;47.990;-1.608;2023-03-01T06:35:54;2.72;;;2.50;;
49378;SDS011;35254;47.990;-1.608;2023-03-01T06:38:20;3.03;;;2.70;;
49378;SDS011;35254;47.990;-1.608;2023-03-01T06:40:51;4.18;;;2.55;;
49378;SDS011;35254;47.990;-1.608;2023-03-01T06:43:18;3.55;;;2.85;;
49378;SDS011;35254;47.990;-1.608;2023-03-01T06:45:44;3.78;;;2.55;;
49378;SDS011;35254;47.990;-1.608;2023-03-01T06:48:10;3.25;;;2.90;;
49378;SDS011;35254;47.990;-1.608;2023-03-01T06:50:36;2.70;;;2.50;;
49378;SDS011;35254;47.990;-1.608;2023-03-01T06:53:02;5.05;;;2.78;;
49378;SDS011;35254;47.990;-1.608;2023-03-01T06:55:29;3.08;;;2.47;;
49378;SDS011;35254;47.990;-1.608;2023-03-01T06:57:55;2.47;;;2.25;;
49378;SDS011;35254;47.990;-1.608;2023-03-01T07:00:22;3.55;;;2.85;;
49378;SDS011;35254;47.990;-1.608;2023-03-01T07:02:48;3.30;;;3.00;;
49378;SDS011;35254;47.990;-1.608;2023-03-01T07:05:13;2.80;;;2.60;;
49378;SDS011;35254;47.990;-1.608;2023-03-01T07:07:39;6.07;;;3.40;;
49378;SDS011;35254;47.990;-1.608;2023-03-01T07:10:05;4.28;;;3.22;;
49378;SDS011;35254;47.990;-1.608;2023-03-01T07:12:31;5.78;;;3.58;;
49378;SDS011;35254;47.990;-1.608;2023-03-01T07:14:57;13.00;;;3.67;;
49378;SDS011;35254;47.990;-1.608;2023-03-01T07:17:23;7.80;;;3.80;;
49378;SDS011;35254;47.990;-1.608;2023-03-01T07:19:49;3.33;;;2.88;;
49378;SDS011;35254;47.990;-1.608;2023-03-01T07:22:14;3.70;;;3.25;;
49378;SDS011;35254;47.990;-1.608;2023-03-01T07:24:40;4.78;;;3.10;;
49378;SDS011;35254;47.990;-1.608;2023-03-01T07:27:06;4.45;;;3.17;;
49378;SDS011;35254;47.990;-1.608;2023-03-01T07:29:32;8.07;;;2.97;;
49378;SDS011;35254;47.990;-1.608;2023-03-01T07:31:58;5.63;;;3.28;;
49378;SDS011;35254;47.990;-1.608;2023-03-01T07:34:23;5.45;;;2.88;;
49378;SDS011;35254;47.990;-1.608;2023-03-01T07:36:49;4.30;;;3.30;;
49378;SDS011;35254;47.990;-1.608;2023-03-01T07:39:15;4.75;;;2.97;;
49378;SDS011;35254;47.990;-1.608;2023-03-01T07:41:40;3.88;;;2.88;;
49378;SDS011;35254;47.990;-1.608;2023-03-01T07:44:06;3.65;;;3.03;;
49378;SDS011;35254;47.990;-1.608;2023-03-01T07:46:32;3.03;;;2.40;;
49378;SDS011;35254;47.990;-1.608;2023-03-01T07:48:57;4.03;;;2.90;;
49378;SDS011;35254;47.990;-1.608;2023-03-01T07:51:23;3.60;;;2.72;;
49378;SDS011;35254;47.990;-1.608;2023-03-01T07:53:49;3.05;;;2.75;;
49378;SDS011;35254;47.990;-1.608;2023-03-01T07:56:17;3.70;;;2.72;;
49378;SDS011;35254;47.990;-1.608;2023-03-01T07:58:44;2.97;;;2.65;;
49378;SDS011;35254;47.990;-1.608;2023-03-01T08:01:11;4.53;;;3.28;;
49378;SDS011;35254;47.990;-1.608;2023-03-01T08:03:39;3.90;;;3.10;;
49378;SDS011;35254;47.990;-1.608;2023-03-01T08:06:06;4.10;;;3.30;;
49378;SDS011;35254;47.990;-1.608;2023-03-01T08:08:33;4.38;;;3.35;;
49378;SDS011;35254;47.990;-1.608;2023-03-01T08:11:00;4.57;;;3.08;;
49378;SDS011;35254;47.990;-1.608;2023-03-01T08:13:28;4.50;;;3.28;;
49378;SDS011;35254;47.990;-1.608;2023-03-01T08:15:53;4.38;;;3.33;;
49378;SDS011;35254;47.990;-1.608;2023-03-01T08:18:20;7.13;;;4.65;;
49378;SDS011;35254;47.990;-1.608;2023-03-01T08:20:46;6.10;;;2.47;;
49378;SDS011;35254;47.990;-1.608;2023-03-01T08:23:12;3.90;;;3.38;;
49378;SDS011;35254;47.990;-1.608;2023-03-01T08:25:37;5.20;;;3.35;;
49378;SDS011;35254;47.990;-1.608;2023-03-01T08:28:04;3.53;;;3.05;;
49378;SDS011;35254;47.990;-1.608;2023-03-01T08:30:30;3.60;;;3.25;;
49378;SDS011;35254;47.990;-1.608;2023-03-01T08:32:56;2.83;;;2.53;;
49378;SDS011;35254;47.990;-1.608;2023-03-01T08:35:22;3.50;;;2.80;;
49378;SDS011;35254;47.990;-1.608;2023-03-01T08:37:47;6.38;;;2.75;;
49378;SDS011;35254;47.990;-1.608;2023-03-01T08:40:13;3.28;;;2.80;;
49378;SDS011;35254;47.990;-1.608;2023-03-01T08:42:40;12.70;;;3.55;;
49378;SDS011;35254;47.990;-1.608;2023-03-01T08:45:08;4.75;;;2.67;;
49378;SDS011;35254;47.990;-1.608;2023-03-01T08:47:35;2.47;;;2.28;;
49378;SDS011;35254;47.990;-1.608;2023-03-01T08:50:01;4.47;;;2.45;;
49378;SDS011;35254;47.990;-1.608;2023-03-01T08:52:28;3.63;;;2.65;;
49378;SDS011;35254;47.990;-1.608;2023-03-01T08:54:55;4.40;;;2.38;;
49378;SDS011;35254;47.990;-1.608;2023-03-01T08:57:22;3.33;;;2.35;;
49378;SDS011;35254;47.990;-1.608;2023-03-01T08:59:47;3.78;;;2.60;;
49378;SDS011;35254;47.990;-1.608;2023-03-01T09:02:16;7.05;;;2.20;;
49378;SDS011;35254;47.990;-1.608;2023-03-01T09:04:43;3.78;;;2.72;;
49378;SDS011;35254;47.990;-1.608;2023-03-01T09:07:09;3.08;;;2.08;;
49378;SDS011;35254;47.990;-1.608;2023-03-01T09:09:36;3.42;;;2.08;;
49378;SDS011;35254;47.990;-1.608;2023-03-01T09:12:02;2.95;;;2.13;;
49378;SDS011;35254;47.990;-1.608;2023-03-01T09:14:28;7.00;;;2.13;;
49378;SDS011;35254;47.990;-1.608;2023-03-01T09:16:54;13.98;;;2.40;;
49378;SDS011;35254;47.990;-1.608;2023-03-01T09:19:21;5.38;;;2.70;;
49378;SDS011;35254;47.990;-1.608;2023-03-01T09:21:46;3.85;;;3.00;;
49378;SDS011;35254;47.990;-1.608;2023-03-01T09:24:21;3.33;;;2.40;;
49378;SDS011;35254;47.990;-1.608;2023-03-01T09:26:49;2.38;;;1.90;;
49378;SDS011;35254;47.990;-1.608;2023-03-01T09:29:17;4.57;;;2.15;;
49378;SDS011;35254;47.990;-1.608;2023-03-01T09:31:43;2.58;;;2.20;;
49378;SDS011;35254;47.990;-1.608;2023-03-01T09:34:08;4.47;;;2.20;;
49378;SDS011;35254;47.990;-1.608;2023-03-01T09:36:34;2.22;;;2.03;;
49378;SDS011;35254;47.990;-1.608;2023-03-01T09:39:00;4.55;;;1.70;;
49378;SDS011;35254;47.990;-1.608;2023-03-01T09:44:23;5.45;;;2.08;;
49378;SDS011;35254;47.990;-1.608;2023-03-01T09:47:21;6.10;;;2.40;;
49378;SDS011;35254;47.990;-1.608;2023-03-01T09:50:02;2.75;;;1.65;;
49378;SDS011;35254;47.990;-1.608;2023-03-01T09:55:01;4.70;;;1.98;;
49378;SDS011;35254;47.990;-1.608;2023-03-01T09:57:41;2.85;;;2.30;;
49378;SDS011;35254;47.990;-1.608;2023-03-01T10:02:51;7.85;;;2.67;;
49378;SDS011;35254;47.990;-1.608;2023-03-01T10:08:26;1.88;;;1.67;;
49378;SDS011;35254;47.990;-1.608;2023-03-01T10:11:01;6.15;;;2.10;;
49378;SDS011;35254;47.990;-1.608;2023-03-01T10:16:26;2.35;;;1.90;;
49378;SDS011;35254;47.990;-1.608;2023-03-01T10:18:58;3.53;;;2.90;;
49378;SDS011;35254;47.990;-1.608;2023-03-01T10:21:27;5.00;;;2.17;;
49378;SDS011;35254;47.990;-1.608;2023-03-01T10:23:57;4.47;;;1.75;;
49378;SDS011;35254;47.990;-1.608;2023-03-01T10:29:06;6.20;;;2.33;;
49378;SDS011;35254;47.990;-1.608;2023-03-01T10:31:38;2.20;;;2.00;;
49378;SDS011;35254;47.990;-1.608;2023-03-01T10:34:16;2.63;;;1.90;;
49378;SDS011;35254;47.990;-1.608;2023-03-01T10:36:48;3.53;;;2.00;;
49378;SDS011;35254;47.990;-1.608;2023-03-01T10:39:18;3.70;;;1.98;;
49378;SDS011;35254;47.990;-1.608;2023-03-01T10:41:56;5.00;;;2.13;;
49378;SDS011;35254;47.990;-1.608;2023-03-01T10:44:46;2.55;;;2.17;;
49378;SDS011;35254;47.990;-1.608;2023-03-01T10:47:14;2.50;;;2.13;;
49378;SDS011;35254;47.990;-1.608;2023-03-01T10:52:27;3.42;;;2.00;;
49378;SDS011;35254;47.990;-1.608;2023-03-01T10:55:02;9.32;;;3.00;;
49378;SDS011;35254;47.990;-1.608;2023-03-01T10:57:49;4.90;;;2.40;;
49378;SDS011;35254;47.990;-1.608;2023-03-01T11:02:46;7.85;;;2.03;;
49378;SDS011;35254;47.990;-1.608;2023-03-01T11:05:32;3.47;;;2.30;;
49378;SDS011;35254;47.990;-1.608;2023-03-01T11:07:59;2.53;;;2.10;;
49378;SDS011;35254;47.990;-1.608;2023-03-01T11:12:53;8.60;;;3.72;;
49378;SDS011;35254;47.990;-1.608;2023-03-01T11:15:41;4.15;;;2.10;;
49378;SDS011;35254;47.990;-1.608;2023-03-01T11:18:20;2.75;;;1.80;;
49378;SDS011;35254;47.990;-1.608;2023-03-01T11:20:47;5.90;;;2.95;;
49378;SDS011;35254;47.990;-1.608;2023-03-01T11:23:16;1.85;;;1.65;;
49378;SDS011;35254;47.990;-1.608;2023-03-01T11:25:46;2.28;;;2.08;;
49378;SDS011;35254;47.990;-1.608;2023-03-01T11:28:17;5.70;;;2.85;;
49378;SDS011;35254;47.990;-1.608;2023-03-01T11:38:30;3.88;;;2.38;;
49378;SDS011;35254;47.990;-1.608;2023-03-01T11:46:17;3.70;;;2.08;;
49378;SDS011;35254;47.990;-1.608;2023-03-01T11:56:48;14.90;;;3.80;;
49378;SDS011;35254;47.990;-1.608;2023-03-01T12:13:38;15.43;;;4.75;;
49378;SDS011;35254;47.990;-1.608;2023-03-01T12:27:07;8.23;;;3.38;;
49378;SDS011;35254;47.990;-1.608;2023-03-01T12:29:50;8.25;;;3.97;;
49378;SDS011;35254;47.990;-1.608;2023-03-01T12:35:35;9.00;;;2.92;;
49378;SDS011;35254;47.990;-1.608;2023-03-01T12:43:41;10.77;;;3.40;;
49378;SDS011;35254;47.990;-1.608;2023-03-01T12:51:32;8.40;;;3.15;;
49378;SDS011;35254;47.990;-1.608;2023-03-01T12:53:59;7.63;;;3.10;;
49378;SDS011;35254;47.990;-1.608;2023-03-01T12:56:34;9.02;;;2.47;;
49378;SDS011;35254;47.990;-1.608;2023-03-01T13:06:46;9.35;;;2.38;;
49378;SDS011;35254;47.990;-1.608;2023-03-01T13:11:44;5.22;;;2.70;;
49378;SDS011;35254;47.990;-1.608;2023-03-01T13:16:48;4.57;;;2.25;;
49378;SDS011;35254;47.990;-1.608;2023-03-01T13:21:41;3.70;;;2.22;;
49378;SDS011;35254;47.990;-1.608;2023-03-01T13:24:29;4.07;;;3.08;;
49378;SDS011;35254;47.990;-1.608;2023-03-01T13:32:33;9.82;;;3.45;;
49378;SDS011;35254;47.990;-1.608;2023-03-01T13:37:41;4.38;;;2.45;;
49378;SDS011;35254;47.990;-1.608;2023-03-01T13:42:42;3.90;;;2.83;;
49378;SDS011;35254;47.990;-1.608;2023-03-01T13:47:48;2.22;;;1.80;;
49378;SDS011;35254;47.990;-1.608;2023-03-01T13:50:20;1.95;;;1.67;;
49378;SDS011;35254;47.990;-1.608;2023-03-01T13:55:25;4.55;;;2.00;;
49378;SDS011;35254;47.990;-1.608;2023-03-01T13:58:19;5.50;;;2.00;;
49378;SDS011;35254;47.990;-1.608;2023-03-01T14:03:30;11.90;;;1.95;;
49378;SDS011;35254;47.990;-1.608;2023-03-01T14:08:29;5.30;;;2.20;;
49378;SDS011;35254;47.990;-1.608;2023-03-01T14:13:51;6.90;;;1.98;;
49378;SDS011;35254;47.990;-1.608;2023-03-01T14:19:16;2.40;;;1.60;;
49378;SDS011;35254;47.990;-1.608;2023-03-01T14:24:48;3.28;;;1.67;;
49378;SDS011;35254;47.990;-1.608;2023-03-01T14:27:19;4.60;;;1.83;;
49378;SDS011;35254;47.990;-1.608;2023-03-01T14:30:32;3.17;;;1.63;;
49378;SDS011;35254;47.990;-1.608;2023-03-01T14:32:40;7.75;;;1.60;;
49378;SDS011;35254;47.990;-1.608;2023-03-01T14:35:21;2.30;;;1.80;;
49378;SDS011;35254;47.990;-1.608;2023-03-01T14:37:52;2.75;;;2.00;;
49378;SDS011;35254;47.990;-1.608;2023-03-01T14:40:28;2.00;;;1.50;;
49378;SDS011;35254;47.990;-1.608;2023-03-01T14:42:58;4.75;;;1.98;;
49378;SDS011;35254;47.990;-1.608;2023-03-01T14:45:26;7.07;;;2.00;;
49378;SDS011;35254;47.990;-1.608;2023-03-01T14:47:53;6.60;;;1.70;;
49378;SDS011;35254;47.990;-1.608;2023-03-01T14:52:54;3.92;;;2.25;;
49378;SDS011;35254;47.990;-1.608;2023-03-01T14:57:58;3.95;;;1.90;;
49378;SDS011;35254;47.990;-1.608;2023-03-01T15:00:25;2.63;;;1.70;;
49378;SDS011;35254;47.990;-1.608;2023-03-01T15:02:53;3.90;;;1.52;;
49378;SDS011;35254;47.990;-1.608;2023-03-01T15:05:31;3.28;;;1.80;;
49378;SDS011;35254;47.990;-1.608;2023-03-01T15:07:59;4.25;;;1.40;;
49378;SDS011;35254;47.990;-1.608;2023-03-01T15:10:28;3.95;;;1.55;;
49378;SDS011;35254;47.990;-1.608;2023-03-01T15:12:55;2.53;;;1.80;;
49378;SDS011;35254;47.990;-1.608;2023-03-01T15:17:55;9.85;;;1.85;;
49378;SDS011;35254;47.990;-1.608;2023-03-01T15:20:24;3.90;;;1.42;;
49378;SDS011;35254;47.990;-1.608;2023-03-01T15:22:54;2.60;;;1.73;;
49378;SDS011;35254;47.990;-1.608;2023-03-01T15:25:22;3.47;;;1.30;;
49378;SDS011;35254;47.990;-1.608;2023-03-01T15:27:50;1.77;;;1.40;;
49378;SDS011;35254;47.990;-1.608;2023-03-01T15:30:18;3.05;;;1.40;;
49378;SDS011;35254;47.990;-1.608;2023-03-01T15:35:48;4.25;;;1.60;;
49378;SDS011;35254;47.990;-1.608;2023-03-01T15:43:48;2.13;;;1.63;;
49378;SDS011;35254;47.990;-1.608;2023-03-01T15:46:22;4.72;;;1.83;;
49378;SDS011;35254;47.990;-1.608;2023-03-01T15:49:04;4.32;;;1.67;;
49378;SDS011;35254;47.990;-1.608;2023-03-01T15:51:49;8.13;;;3.17;;
49378;SDS011;35254;47.990;-1.608;2023-03-01T15:54:19;9.75;;;2.45;;
49378;SDS011;35254;47.990;-1.608;2023-03-01T15:56:47;5.15;;;1.83;;
49378;SDS011;35254;47.990;-1.608;2023-03-01T15:59:13;6.68;;;2.47;;
49378;SDS011;35254;47.990;-1.608;2023-03-01T16:01:42;5.53;;;2.55;;
49378;SDS011;35254;47.990;-1.608;2023-03-01T16:04:09;2.38;;;1.83;;
49378;SDS011;35254;47.990;-1.608;2023-03-01T16:06:38;8.95;;;1.50;;
49378;SDS011;35254;47.990;-1.608;2023-03-01T16:09:04;2.67;;;1.50;;
49378;SDS011;35254;47.990;-1.608;2023-03-01T16:11:30;2.90;;;2.05;;
49378;SDS011;35254;47.990;-1.608;2023-03-01T16:13:57;1.70;;;1.55;;
49378;SDS011;35254;47.990;-1.608;2023-03-01T16:16:23;5.90;;;1.95;;
49378;SDS011;35254;47.990;-1.608;2023-03-01T16:18:49;3.83;;;1.90;;
49378;SDS011;35254;47.990;-1.608;2023-03-01T16:21:16;6.72;;;1.50;;
49378;SDS011;35254;47.990;-1.608;2023-03-01T16:23:50;3.60;;;1.45;;
49378;SDS011;35254;47.990;-1.608;2023-03-01T16:26:16;3.47;;;1.70;;
49378;SDS011;35254;47.990;-1.608;2023-03-01T16:28:43;2.38;;;1.73;;
49378;SDS011;35254;47.990;-1.608;2023-03-01T16:31:10;3.83;;;1.92;;
49378;SDS011;35254;47.990;-1.608;2023-03-01T16:33:37;2.50;;;1.40;;
49378;SDS011;35254;47.990;-1.608;2023-03-01T16:36:11;3.05;;;1.70;;
49378;SDS011;35254;47.990;-1.608;2023-03-01T16:38:38;1.83;;;1.35;;
49378;SDS011;35254;47.990;-1.608;2023-03-01T16:41:04;2.97;;;1.65;;
49378;SDS011;35254;47.990;-1.608;2023-03-01T16:43:30;2.65;;;2.08;;
49378;SDS011;35254;47.990;-1.608;2023-03-01T16:45:56;1.65;;;1.52;;
49378;SDS011;35254;47.990;-1.608;2023-03-01T16:48:22;2.58;;;1.58;;
49378;SDS011;35254;47.990;-1.608;2023-03-01T16:51:00;3.30;;;1.75;;
49378;SDS011;35254;47.990;-1.608;2023-03-01T16:53:26;1.55;;;1.38;;
49378;SDS011;35254;47.990;-1.608;2023-03-01T16:55:54;9.05;;;1.63;;
49378;SDS011;35254;47.990;-1.608;2023-03-01T16:58:21;2.30;;;1.88;;
49378;SDS011;35254;47.990;-1.608;2023-03-01T17:00:50;5.40;;;1.55;;
49378;SDS011;35254;47.990;-1.608;2023-03-01T17:03:19;2.30;;;1.52;;
49378;SDS011;35254;47.990;-1.608;2023-03-01T17:05:45;4.15;;;2.15;;
49378;SDS011;35254;47.990;-1.608;2023-03-01T17:08:10;5.38;;;1.58;;
49378;SDS011;35254;47.990;-1.608;2023-03-01T17:10:36;2.65;;;1.63;;
49378;SDS011;35254;47.990;-1.608;2023-03-01T17:13:02;5.95;;;1.92;;
49378;SDS011;35254;47.990;-1.608;2023-03-01T17:15:28;4.40;;;1.75;;
49378;SDS011;35254;47.990;-1.608;2023-03-01T17:17:54;2.55;;;2.22;;
49378;SDS011;35254;47.990;-1.608;2023-03-01T17:20:20;3.85;;;2.40;;
49378;SDS011;35254;47.990;-1.608;2023-03-01T17:22:45;2.97;;;1.60;;
49378;SDS011;35254;47.990;-1.608;2023-03-01T17:25:11;4.15;;;2.17;;